sensor_id;sensor_type;location;lat;lon;timestamp;pressure;altitude;pressure_sealevel;temperature;humidity
6778;BME280;3426;52.244;10.534;2022-09-09T00:00:37;100104.19;;;18.88;66.48
6778;BME280;3426;52.244;10.534;2022-09-09T00:03:16;100107.59;;;18.90;66.38
6778;BME280;3426;52.244;10.534;2022-09-09T00:08:56;100104.94;;;18.80;66.67
6778;BME280;3426;52.244;10.534;2022-09-09T00:11:43;100101.97;;;18.84;66.69
6778;BME280;3426;52.244;10.534;2022-09-09T00:14:15;100098.63;;;18.72;66.23
6778;BME280;3426;52.244;10.534;2022-09-09T00:16:50;100107.31;;;18.56;66.89
6778;BME280;3426;52.244;10.534;2022-09-09T00:19:24;100102.47;;;18.69;66.64
6778;BME280;3426;52.244;10.534;2022-09-09T00:22:24;100099.75;;;18.79;66.67
6778;BME280;3426;52.244;10.534;2022-09-09T00:24:54;100102.72;;;18.76;66.47
6778;BME280;3426;52.244;10.534;2022-09-09T00:27:27;100092.22;;;18.83;66.68
6778;BME280;3426;52.244;10.534;2022-09-09T00:30:00;100103.50;;;18.86;66.78
6778;BME280;3426;52.244;10.534;2022-09-09T00:32:29;100101.22;;;18.91;66.35
6778;BME280;3426;52.244;10.534;2022-09-09T00:35:03;100099.81;;;18.87;66.57
6778;BME280;3426;52.244;10.534;2022-09-09T00:37:31;100108.03;;;18.86;66.54
6778;BME280;3426;52.244;10.534;2022-09-09T00:40:02;100100.81;;;18.49;67.04
6778;BME280;3426;52.244;10.534;2022-09-09T00:42:43;100100.13;;;18.47;67.56
6778;BME280;3426;52.244;10.534;2022-09-09T00:48:10;100096.41;;;18.67;67.09
6778;BME280;3426;52.244;10.534;2022-09-09T00:50:57;100100.19;;;18.74;66.71
6778;BME280;3426;52.244;10.534;2022-09-09T00:53:51;100092.56;;;18.70;66.50
6778;BME280;3426;52.244;10.534;2022-09-09T00:56:25;100095.41;;;18.68;66.75
6778;BME280;3426;52.244;10.534;2022-09-09T00:59:12;100097.66;;;18.73;66.33
6778;BME280;3426;52.244;10.534;2022-09-09T01:01:42;100092.22;;;18.83;66.18
6778;BME280;3426;52.244;10.534;2022-09-09T01:04:13;100088.00;;;18.80;66.22
6778;BME280;3426;52.244;10.534;2022-09-09T01:06:43;100096.75;;;18.82;66.00
6778;BME280;3426;52.244;10.534;2022-09-09T01:09:25;100096.25;;;18.69;66.26
6778;BME280;3426;52.244;10.534;2022-09-09T01:12:15;100096.00;;;18.62;66.23
6778;BME280;3426;52.244;10.534;2022-09-09T01:14:48;100089.06;;;18.60;66.71
6778;BME280;3426;52.244;10.534;2022-09-09T01:17:24;100096.81;;;18.72;65.98
6778;BME280;3426;52.244;10.534;2022-09-09T01:22:44;100105.56;;;18.74;66.29
6778;BME280;3426;52.244;10.534;2022-09-09T01:28:25;100097.94;;;18.60;66.20
6778;BME280;3426;52.244;10.534;2022-09-09T01:30:53;100105.00;;;18.71;66.10
6778;BME280;3426;52.244;10.534;2022-09-09T01:33:21;100101.34;;;18.62;66.08
6778;BME280;3426;52.244;10.534;2022-09-09T01:36:18;100102.47;;;18.60;66.08
6778;BME280;3426;52.244;10.534;2022-09-09T01:38:40;100099.34;;;18.64;65.73
6778;BME280;3426;52.244;10.534;2022-09-09T01:41:07;100094.81;;;18.65;66.04
6778;BME280;3426;52.244;10.534;2022-09-09T01:43:33;100092.56;;;18.70;65.68
6778;BME280;3426;52.244;10.534;2022-09-09T01:46:01;100096.97;;;18.61;66.04
6778;BME280;3426;52.244;10.534;2022-09-09T01:48:30;100088.38;;;18.67;65.76
6778;BME280;3426;52.244;10.534;2022-09-09T01:50:57;100095.44;;;18.59;66.18
6778;BME280;3426;52.244;10.534;2022-09-09T01:53:24;100089.22;;;18.58;66.15
6778;BME280;3426;52.244;10.534;2022-09-09T02:03:52;100089.19;;;18.31;66.40
6778;BME280;3426;52.244;10.534;2022-09-09T02:06:30;100088.13;;;18.51;66.26
6778;BME280;3426;52.244;10.534;2022-09-09T02:09:03;100096.88;;;18.53;65.88
6778;BME280;3426;52.244;10.534;2022-09-09T02:11:31;100090.06;;;18.59;65.94
6778;BME280;3426;52.244;10.534;2022-09-09T02:16:52;100090.91;;;18.59;65.95
6778;BME280;3426;52.244;10.534;2022-09-09T02:19:34;100097.56;;;18.55;66.03
6778;BME280;3426;52.244;10.534;2022-09-09T02:22:03;100094.91;;;18.55;65.76
6778;BME280;3426;52.244;10.534;2022-09-09T02:24:33;100094.91;;;18.55;66.11
6778;BME280;3426;52.244;10.534;2022-09-09T02:27:03;100094.63;;;18.48;66.04
6778;BME280;3426;52.244;10.534;2022-09-09T02:29:35;100091.84;;;18.40;65.61
6778;BME280;3426;52.244;10.534;2022-09-09T02:32:06;100087.59;;;18.38;65.77
6778;BME280;3426;52.244;10.534;2022-09-09T02:34:37;100086.22;;;18.34;66.12
6778;BME280;3426;52.244;10.534;2022-09-09T02:37:08;100088.91;;;18.34;66.19
6778;BME280;3426;52.244;10.534;2022-09-09T02:39:36;100087.41;;;18.12;66.50
6778;BME280;3426;52.244;10.534;2022-09-09T02:42:03;100085.91;;;18.37;65.64
6778;BME280;3426;52.244;10.534;2022-09-09T02:44:30;100082.53;;;18.44;65.59
6778;BME280;3426;52.244;10.534;2022-09-09T02:58:06;100087.31;;;18.41;65.79
6778;BME280;3426;52.244;10.534;2022-09-09T03:00:34;100085.91;;;18.37;65.95
6778;BME280;3426;52.244;10.534;2022-09-09T03:03:03;100081.09;;;18.50;65.78
6778;BME280;3426;52.244;10.534;2022-09-09T03:05:30;100085.22;;;18.35;65.96
6778;BME280;3426;52.244;10.534;2022-09-09T03:07:57;100086.63;;;18.39;66.39
6778;BME280;3426;52.244;10.534;2022-09-09T03:10:23;100084.19;;;18.45;65.58
6778;BME280;3426;52.244;10.534;2022-09-09T03:12:50;100087.16;;;18.42;65.82
6778;BME280;3426;52.244;10.534;2022-09-09T03:15:16;100088.47;;;18.38;66.02
6778;BME280;3426;52.244;10.534;2022-09-09T03:17:43;100083.97;;;18.29;65.84
6778;BME280;3426;52.244;10.534;2022-09-09T03:20:09;100087.09;;;18.24;66.13
6778;BME280;3426;52.244;10.534;2022-09-09T03:22:36;100081.72;;;18.34;66.17
6778;BME280;3426;52.244;10.534;2022-09-09T03:25:02;100085.03;;;18.46;65.49
6778;BME280;3426;52.244;10.534;2022-09-09T03:27:29;100090.00;;;18.41;65.59
6778;BME280;3426;52.244;10.534;2022-09-09T03:29:56;100090.69;;;18.43;65.73
6778;BME280;3426;52.244;10.534;2022-09-09T03:32:22;100086.75;;;18.37;65.64
6778;BME280;3426;52.244;10.534;2022-09-09T03:34:48;100089.78;;;18.15;66.55
6778;BME280;3426;52.244;10.534;2022-09-09T03:37:19;100092.88;;;18.30;66.23
6778;BME280;3426;52.244;10.534;2022-09-09T03:39:46;100092.97;;;18.38;65.79
6778;BME280;3426;52.244;10.534;2022-09-09T03:42:14;100094.38;;;18.42;65.80
6778;BME280;3426;52.244;10.534;2022-09-09T03:44:48;100095.13;;;18.34;66.00
6778;BME280;3426;52.244;10.534;2022-09-09T03:47:20;100091.84;;;18.40;66.06
6778;BME280;3426;52.244;10.534;2022-09-09T03:49:48;100092.41;;;18.44;65.85
6778;BME280;3426;52.244;10.534;2022-09-09T03:52:15;100088.28;;;18.02;66.94
6778;BME280;3426;52.244;10.534;2022-09-09T03:54:46;100090.25;;;18.10;66.95
6778;BME280;3426;52.244;10.534;2022-09-09T03:57:14;100082.41;;;18.36;66.21
6778;BME280;3426;52.244;10.534;2022-09-09T03:59:43;100076.78;;;18.30;66.52
6778;BME280;3426;52.244;10.534;2022-09-09T04:02:10;100079.28;;;18.41;66.11
6778;BME280;3426;52.244;10.534;2022-09-09T04:04:36;100080.56;;;18.37;66.39
6778;BME280;3426;52.244;10.534;2022-09-09T04:07:03;100082.72;;;18.33;66.42
6778;BME280;3426;52.244;10.534;2022-09-09T04:09:32;100088.72;;;18.45;66.08
6778;BME280;3426;52.244;10.534;2022-09-09T04:11:58;100079.53;;;18.47;66.30
6778;BME280;3426;52.244;10.534;2022-09-09T04:14:25;100088.41;;;18.48;66.50
6778;BME280;3426;52.244;10.534;2022-09-09T04:16:54;100085.88;;;18.46;66.51
6778;BME280;3426;52.244;10.534;2022-09-09T04:19:23;100084.88;;;18.47;66.61
6778;BME280;3426;52.244;10.534;2022-09-09T04:21:49;100083.66;;;18.32;66.78
6778;BME280;3426;52.244;10.534;2022-09-09T04:24:17;100081.69;;;18.44;66.19
6778;BME280;3426;52.244;10.534;2022-09-09T04:26:45;100087.28;;;18.50;66.28
6778;BME280;3426;52.244;10.534;2022-09-09T04:29:11;100094.19;;;18.53;66.17
6778;BME280;3426;52.244;10.534;2022-09-09T04:31:38;100093.50;;;18.51;66.39
6778;BME280;3426;52.244;10.534;2022-09-09T04:34:11;100098.00;;;18.50;66.25
6778;BME280;3426;52.244;10.534;2022-09-09T04:36:37;100095.22;;;18.42;66.35
6778;BME280;3426;52.244;10.534;2022-09-09T04:39:05;100091.19;;;18.28;66.74
6778;BME280;3426;52.244;10.534;2022-09-09T04:41:32;100092.09;;;18.47;66.67
6778;BME280;3426;52.244;10.534;2022-09-09T04:43:58;100094.13;;;18.35;66.68
6778;BME280;3426;52.244;10.534;2022-09-09T04:46:26;100090.09;;;18.21;67.14
6778;BME280;3426;52.244;10.534;2022-09-09T04:48:53;100106.19;;;18.49;66.68
6778;BME280;3426;52.244;10.534;2022-09-09T04:51:20;100101.69;;;18.49;67.69
6778;BME280;3426;52.244;10.534;2022-09-09T04:53:46;100101.31;;;18.72;67.40
6778;BME280;3426;52.244;10.534;2022-09-09T04:56:15;100105.56;;;18.74;67.17
6778;BME280;3426;52.244;10.534;2022-09-09T05:01:21;100104.34;;;18.87;65.88
6778;BME280;3426;52.244;10.534;2022-09-09T05:03:49;100111.78;;;18.93;66.01
6778;BME280;3426;52.244;10.534;2022-09-09T05:06:17;100114.31;;;18.94;66.43
6778;BME280;3426;52.244;10.534;2022-09-09T05:08:44;100104.53;;;19.03;66.00
6778;BME280;3426;52.244;10.534;2022-09-09T05:13:41;100104.91;;;18.53;66.93
6778;BME280;3426;52.244;10.534;2022-09-09T05:16:08;100110.28;;;18.90;66.15
6778;BME280;3426;52.244;10.534;2022-09-09T05:18:38;100111.41;;;18.88;67.33
6778;BME280;3426;52.244;10.534;2022-09-09T05:21:05;100107.91;;;18.77;66.15
6778;BME280;3426;52.244;10.534;2022-09-09T05:23:33;100108.50;;;18.71;66.24
6778;BME280;3426;52.244;10.534;2022-09-09T05:26:00;100105.75;;;18.91;66.18
6778;BME280;3426;52.244;10.534;2022-09-09T05:28:27;100113.19;;;18.60;66.64
6778;BME280;3426;52.244;10.534;2022-09-09T05:31:02;100112.34;;;18.59;67.55
6778;BME280;3426;52.244;10.534;2022-09-09T05:33:35;100110.03;;;18.84;66.68
6778;BME280;3426;52.244;10.534;2022-09-09T05:36:07;100115.00;;;19.06;66.57
6778;BME280;3426;52.244;10.534;2022-09-09T05:38:34;100111.00;;;19.28;66.10
6778;BME280;3426;52.244;10.534;2022-09-09T05:41:02;100110.72;;;19.49;65.89
6778;BME280;3426;52.244;10.534;2022-09-09T05:43:29;100118.28;;;19.63;65.67
6778;BME280;3426;52.244;10.534;2022-09-09T05:48:31;100118.59;;;19.50;66.09
6778;BME280;3426;52.244;10.534;2022-09-09T05:50:59;100118.09;;;19.47;65.58
6778;BME280;3426;52.244;10.534;2022-09-09T05:53:26;100130.72;;;19.37;65.66
6778;BME280;3426;52.244;10.534;2022-09-09T05:56:10;100140.06;;;19.15;66.24
6778;BME280;3426;52.244;10.534;2022-09-09T05:58:40;100136.75;;;19.03;66.29
6778;BME280;3426;52.244;10.534;2022-09-09T06:01:15;100136.38;;;19.16;66.11
6778;BME280;3426;52.244;10.534;2022-09-09T06:03:43;100134.06;;;19.03;66.27
6778;BME280;3426;52.244;10.534;2022-09-09T06:06:15;100128.47;;;19.14;65.12
6778;BME280;3426;52.244;10.534;2022-09-09T06:08:44;100129.75;;;18.92;66.58
6778;BME280;3426;52.244;10.534;2022-09-09T06:11:17;100131.38;;;19.03;66.46
6778;BME280;3426;52.244;10.534;2022-09-09T06:13:44;100128.72;;;19.39;65.63
6778;BME280;3426;52.244;10.534;2022-09-09T06:16:12;100120.00;;;19.72;64.98
6778;BME280;3426;52.244;10.534;2022-09-09T06:18:39;100133.75;;;19.51;65.26
6778;BME280;3426;52.244;10.534;2022-09-09T06:21:09;100128.28;;;19.43;65.92
6778;BME280;3426;52.244;10.534;2022-09-09T06:23:39;100139.13;;;19.69;65.61
6778;BME280;3426;52.244;10.534;2022-09-09T06:26:17;100134.22;;;19.65;64.65
6778;BME280;3426;52.244;10.534;2022-09-09T06:28:49;100129.69;;;19.83;64.52
6778;BME280;3426;52.244;10.534;2022-09-09T06:31:17;100131.94;;;19.96;64.93
6778;BME280;3426;52.244;10.534;2022-09-09T06:33:53;100131.81;;;20.23;63.45
6778;BME280;3426;52.244;10.534;2022-09-09T06:36:23;100130.66;;;20.52;63.28
6778;BME280;3426;52.244;10.534;2022-09-09T06:38:50;100129.41;;;20.38;62.63
6778;BME280;3426;52.244;10.534;2022-09-09T06:41:18;100128.88;;;20.08;65.09
6778;BME280;3426;52.244;10.534;2022-09-09T06:43:46;100132.84;;;20.82;62.42
6778;BME280;3426;52.244;10.534;2022-09-09T06:46:15;100134.25;;;20.60;64.43
6778;BME280;3426;52.244;10.534;2022-09-09T06:48:43;100128.69;;;20.96;63.01
6778;BME280;3426;52.244;10.534;2022-09-09T06:51:13;100128.75;;;21.12;63.86
6778;BME280;3426;52.244;10.534;2022-09-09T06:53:41;100125.56;;;21.25;61.97
6778;BME280;3426;52.244;10.534;2022-09-09T06:56:24;100132.22;;;20.97;62.55
6778;BME280;3426;52.244;10.534;2022-09-09T06:58:52;100129.47;;;20.80;62.03
6778;BME280;3426;52.244;10.534;2022-09-09T07:01:20;100126.56;;;20.66;61.89
6778;BME280;3426;52.244;10.534;2022-09-09T07:03:50;100122.41;;;20.79;62.33
6778;BME280;3426;52.244;10.534;2022-09-09T07:06:20;100120.13;;;21.01;62.13
6778;BME280;3426;52.244;10.534;2022-09-09T07:08:51;100116.22;;;21.54;62.85
6778;BME280;3426;52.244;10.534;2022-09-09T07:11:24;100115.41;;;21.61;61.28
6778;BME280;3426;52.244;10.534;2022-09-09T07:13:53;100115.03;;;21.64;60.69
6778;BME280;3426;52.244;10.534;2022-09-09T07:16:22;100119.94;;;22.02;60.92
6778;BME280;3426;52.244;10.534;2022-09-09T07:18:52;100113.19;;;22.14;61.18
6778;BME280;3426;52.244;10.534;2022-09-09T07:21:19;100112.50;;;21.55;62.06
6778;BME280;3426;52.244;10.534;2022-09-09T07:23:47;100109.09;;;22.42;59.48
6778;BME280;3426;52.244;10.534;2022-09-09T07:26:16;100115.16;;;22.84;58.29
6778;BME280;3426;52.244;10.534;2022-09-09T07:28:45;100122.13;;;23.17;57.15
6778;BME280;3426;52.244;10.534;2022-09-09T07:31:17;100123.84;;;22.71;58.64
6778;BME280;3426;52.244;10.534;2022-09-09T07:33:45;100113.28;;;22.45;62.51
6778;BME280;3426;52.244;10.534;2022-09-09T07:36:17;100120.56;;;23.23;58.23
6778;BME280;3426;52.244;10.534;2022-09-09T07:38:45;100121.09;;;22.79;57.02
6778;BME280;3426;52.244;10.534;2022-09-09T07:41:23;100125.25;;;23.83;54.64
6778;BME280;3426;52.244;10.534;2022-09-09T07:43:52;100125.66;;;23.18;57.51
6778;BME280;3426;52.244;10.534;2022-09-09T07:46:22;100123.41;;;22.98;56.40
6778;BME280;3426;52.244;10.534;2022-09-09T07:48:50;100119.44;;;23.71;54.51
6778;BME280;3426;52.244;10.534;2022-09-09T07:51:29;100125.28;;;23.98;54.54
6778;BME280;3426;52.244;10.534;2022-09-09T07:54:01;100128.59;;;23.85;56.34
6778;BME280;3426;52.244;10.534;2022-09-09T07:56:31;100124.44;;;23.97;55.53
6778;BME280;3426;52.244;10.534;2022-09-09T07:58:59;100126.00;;;25.03;51.60
6778;BME280;3426;52.244;10.534;2022-09-09T08:01:29;100120.50;;;24.38;50.67
6778;BME280;3426;52.244;10.534;2022-09-09T08:04:04;100125.88;;;25.26;50.96
6778;BME280;3426;52.244;10.534;2022-09-09T08:06:33;100110.25;;;26.21;48.40
6778;BME280;3426;52.244;10.534;2022-09-09T08:09:00;100122.88;;;26.56;46.45
6778;BME280;3426;52.244;10.534;2022-09-09T08:11:28;100121.78;;;27.40;45.65
6778;BME280;3426;52.244;10.534;2022-09-09T08:13:55;100125.41;;;27.73;44.57
6778;BME280;3426;52.244;10.534;2022-09-09T08:16:30;100115.66;;;28.84;40.69
6778;BME280;3426;52.244;10.534;2022-09-09T08:18:58;100114.94;;;29.46;41.03
6778;BME280;3426;52.244;10.534;2022-09-09T08:21:30;100118.59;;;28.82;41.06
6778;BME280;3426;52.244;10.534;2022-09-09T08:23:59;100125.16;;;28.61;41.09
6778;BME280;3426;52.244;10.534;2022-09-09T08:26:31;100131.59;;;27.41;43.10
6778;BME280;3426;52.244;10.534;2022-09-09T08:29:00;100129.75;;;26.59;46.11
6778;BME280;3426;52.244;10.534;2022-09-09T08:31:38;100123.91;;;26.55;46.86
6778;BME280;3426;52.244;10.534;2022-09-09T08:34:05;100131.13;;;27.17;45.68
6778;BME280;3426;52.244;10.534;2022-09-09T08:36:34;100128.78;;;26.66;46.86
6778;BME280;3426;52.244;10.534;2022-09-09T08:39:03;100128.59;;;26.40;46.74
6778;BME280;3426;52.244;10.534;2022-09-09T08:55:52;100135.88;;;25.69;47.52
6778;BME280;3426;52.244;10.534;2022-09-09T08:58:22;100140.00;;;26.29;47.30
6778;BME280;3426;52.244;10.534;2022-09-09T09:03:33;100144.09;;;26.46;46.09
6778;BME280;3426;52.244;10.534;2022-09-09T09:06:09;100137.19;;;26.15;46.14
6778;BME280;3426;52.244;10.534;2022-09-09T09:08:51;100135.19;;;26.31;45.59
6778;BME280;3426;52.244;10.534;2022-09-09T09:11:21;100137.69;;;24.59;50.03
6778;BME280;3426;52.244;10.534;2022-09-09T09:13:56;100137.44;;;25.56;47.83
6778;BME280;3426;52.244;10.534;2022-09-09T09:16:33;100141.41;;;25.03;50.68
6778;BME280;3426;52.244;10.534;2022-09-09T09:19:01;100142.19;;;25.33;47.79
6778;BME280;3426;52.244;10.534;2022-09-09T09:21:41;100136.91;;;25.46;47.93
6778;BME280;3426;52.244;10.534;2022-09-09T09:24:21;100142.34;;;24.95;48.69
6778;BME280;3426;52.244;10.534;2022-09-09T09:26:50;100141.13;;;25.49;46.86
6778;BME280;3426;52.244;10.534;2022-09-09T09:29:18;100141.34;;;25.47;47.29
6778;BME280;3426;52.244;10.534;2022-09-09T09:31:50;100148.50;;;25.55;47.79
6778;BME280;3426;52.244;10.534;2022-09-09T09:34:17;100154.41;;;25.44;48.26
6778;BME280;3426;52.244;10.534;2022-09-09T09:36:52;100148.63;;;25.10;48.52
6778;BME280;3426;52.244;10.534;2022-09-09T09:39:30;100156.47;;;24.76;49.33
6778;BME280;3426;52.244;10.534;2022-09-09T09:42:17;100154.38;;;25.58;46.79
6778;BME280;3426;52.244;10.534;2022-09-09T09:44:49;100150.47;;;26.04;45.62
6778;BME280;3426;52.244;10.534;2022-09-09T09:47:19;100150.88;;;25.43;47.09
6778;BME280;3426;52.244;10.534;2022-09-09T09:49:58;100146.50;;;26.06;45.92
6778;BME280;3426;52.244;10.534;2022-09-09T09:52:27;100146.13;;;26.09;46.71
6778;BME280;3426;52.244;10.534;2022-09-09T09:54:56;100146.78;;;25.32;46.38
6778;BME280;3426;52.244;10.534;2022-09-09T09:57:26;100142.44;;;26.45;45.82
6778;BME280;3426;52.244;10.534;2022-09-09T10:02:41;100136.78;;;26.19;46.58
6778;BME280;3426;52.244;10.534;2022-09-09T10:05:24;100136.28;;;26.08;46.29
6778;BME280;3426;52.244;10.534;2022-09-09T10:08:14;100134.78;;;25.78;47.60
6778;BME280;3426;52.244;10.534;2022-09-09T10:17:01;100117.09;;;26.10;46.30
6778;BME280;3426;52.244;10.534;2022-09-09T10:19:33;100121.81;;;26.57;45.87
6778;BME280;3426;52.244;10.534;2022-09-09T10:22:29;100121.38;;;26.54;45.49
6778;BME280;3426;52.244;10.534;2022-09-09T10:25:10;100124.09;;;26.95;44.77
6778;BME280;3426;52.244;10.534;2022-09-09T10:34:09;100119.44;;;25.70;45.81
6778;BME280;3426;52.244;10.534;2022-09-09T10:36:45;100119.66;;;26.18;45.49
6778;BME280;3426;52.244;10.534;2022-09-09T10:44:42;100106.56;;;26.00;45.35
6778;BME280;3426;52.244;10.534;2022-09-09T10:47:44;100107.38;;;25.94;43.67
6778;BME280;3426;52.244;10.534;2022-09-09T10:50:34;100114.94;;;26.27;43.42
6778;BME280;3426;52.244;10.534;2022-09-09T10:56:21;100120.56;;;25.76;43.95
6778;BME280;3426;52.244;10.534;2022-09-09T10:59:08;100109.97;;;25.59;43.61
6778;BME280;3426;52.244;10.534;2022-09-09T11:01:43;100101.09;;;25.51;43.59
6778;BME280;3426;52.244;10.534;2022-09-09T11:04:25;100097.28;;;25.67;42.78
6778;BME280;3426;52.244;10.534;2022-09-09T11:06:55;100095.00;;;26.20;43.09
6778;BME280;3426;52.244;10.534;2022-09-09T11:09:28;100092.59;;;26.03;44.60
6778;BME280;3426;52.244;10.534;2022-09-09T11:11:58;100091.59;;;25.19;44.80
6778;BME280;3426;52.244;10.534;2022-09-09T11:14:37;100079.69;;;25.77;45.77
6778;BME280;3426;52.244;10.534;2022-09-09T11:17:11;100078.84;;;26.05;42.84
6778;BME280;3426;52.244;10.534;2022-09-09T11:19:42;100089.56;;;26.41;44.91
6778;BME280;3426;52.244;10.534;2022-09-09T11:22:36;100083.06;;;25.86;43.20
6778;BME280;3426;52.244;10.534;2022-09-09T11:25:14;100081.06;;;26.23;41.18
6778;BME280;3426;52.244;10.534;2022-09-09T11:42:25;100106.00;;;25.62;44.48
6778;BME280;3426;52.244;10.534;2022-09-09T11:44:52;100113.47;;;24.14;48.54
6778;BME280;3426;52.244;10.534;2022-09-09T11:47:30;100115.75;;;24.69;47.35
6778;BME280;3426;52.244;10.534;2022-09-09T11:52:39;100110.72;;;25.53;43.87
6778;BME280;3426;52.244;10.534;2022-09-09T11:55:25;100117.06;;;25.60;45.85
6778;BME280;3426;52.244;10.534;2022-09-09T11:58:16;100111.44;;;25.83;43.48
6778;BME280;3426;52.244;10.534;2022-09-09T12:00:48;100106.75;;;25.34;44.83
6778;BME280;3426;52.244;10.534;2022-09-09T12:06:32;100103.09;;;25.63;44.88
6778;BME280;3426;52.244;10.534;2022-09-09T12:09:15;100096.44;;;25.66;45.19
6778;BME280;3426;52.244;10.534;2022-09-09T12:11:43;100089.75;;;25.83;44.45
6778;BME280;3426;52.244;10.534;2022-09-09T12:14:35;100089.41;;;25.07;45.22
6778;BME280;3426;52.244;10.534;2022-09-09T12:19:41;100069.13;;;26.45;43.90
6778;BME280;3426;52.244;10.534;2022-09-09T12:22:27;100076.44;;;26.45;44.56
6778;BME280;3426;52.244;10.534;2022-09-09T12:28:01;100084.31;;;26.39;43.29
6778;BME280;3426;52.244;10.534;2022-09-09T12:30:34;100081.03;;;25.88;41.72
6778;BME280;3426;52.244;10.534;2022-09-09T12:33:10;100077.47;;;26.44;41.66
6778;BME280;3426;52.244;10.534;2022-09-09T12:35:37;100077.22;;;26.10;40.54
6778;BME280;3426;52.244;10.534;2022-09-09T12:38:05;100075.38;;;26.17;40.99
6778;BME280;3426;52.244;10.534;2022-09-09T12:40:35;100078.34;;;26.51;41.52
6778;BME280;3426;52.244;10.534;2022-09-09T12:43:17;100083.84;;;26.71;39.95
6778;BME280;3426;52.244;10.534;2022-09-09T12:45:43;100079.22;;;26.30;39.78
6778;BME280;3426;52.244;10.534;2022-09-09T12:48:12;100082.31;;;26.55;39.69
6778;BME280;3426;52.244;10.534;2022-09-09T12:50:47;100077.09;;;26.53;40.00
6778;BME280;3426;52.244;10.534;2022-09-09T12:55:57;100074.19;;;25.71;39.95
6778;BME280;3426;52.244;10.534;2022-09-09T12:58:25;100077.41;;;26.09;38.83
6778;BME280;3426;52.244;10.534;2022-09-09T13:00:55;100080.31;;;26.07;39.97
6778;BME280;3426;52.244;10.534;2022-09-09T13:03:26;100087.47;;;26.84;37.47
6778;BME280;3426;52.244;10.534;2022-09-09T13:05:58;100073.31;;;27.02;37.73
6778;BME280;3426;52.244;10.534;2022-09-09T13:08:26;100069.88;;;26.39;37.88
6778;BME280;3426;52.244;10.534;2022-09-09T13:10:57;100074.16;;;26.96;37.32
6778;BME280;3426;52.244;10.534;2022-09-09T13:13:36;100084.13;;;25.42;42.04
6778;BME280;3426;52.244;10.534;2022-09-09T13:16:06;100086.84;;;26.41;40.09
6778;BME280;3426;52.244;10.534;2022-09-09T13:18:36;100087.09;;;26.18;41.70
6778;BME280;3426;52.244;10.534;2022-09-09T13:21:04;100084.38;;;25.90;42.41
6778;BME280;3426;52.244;10.534;2022-09-09T13:23:33;100078.97;;;25.47;42.17
6778;BME280;3426;52.244;10.534;2022-09-09T13:26:05;100089.44;;;26.28;41.66
6778;BME280;3426;52.244;10.534;2022-09-09T13:28:32;100082.63;;;26.38;41.46
6778;BME280;3426;52.244;10.534;2022-09-09T13:31:04;100078.19;;;26.65;40.73
6778;BME280;3426;52.244;10.534;2022-09-09T13:33:37;100066.19;;;26.19;41.58
6778;BME280;3426;52.244;10.534;2022-09-09T13:36:07;100063.69;;;26.45;41.15
6778;BME280;3426;52.244;10.534;2022-09-09T13:39:01;100053.28;;;26.55;40.18
6778;BME280;3426;52.244;10.534;2022-09-09T13:41:33;100054.66;;;26.38;40.25
6778;BME280;3426;52.244;10.534;2022-09-09T13:44:00;100054.25;;;26.41;40.65
6778;BME280;3426;52.244;10.534;2022-09-09T13:46:40;100057.25;;;26.53;40.38
6778;BME280;3426;52.244;10.534;2022-09-09T13:51:40;100070.53;;;26.13;42.02
6778;BME280;3426;52.244;10.534;2022-09-09T13:54:09;100068.09;;;25.90;42.08
6778;BME280;3426;52.244;10.534;2022-09-09T13:56:37;100059.91;;;26.11;41.74
6778;BME280;3426;52.244;10.534;2022-09-09T13:59:08;100064.13;;;26.21;41.69
6778;BME280;3426;52.244;10.534;2022-09-09T14:01:35;100055.06;;;26.83;40.57
6778;BME280;3426;52.244;10.534;2022-09-09T14:04:03;100062.28;;;26.21;39.42
6778;BME280;3426;52.244;10.534;2022-09-09T14:06:34;100067.72;;;25.93;39.86
6778;BME280;3426;52.244;10.534;2022-09-09T14:09:04;100066.88;;;25.71;40.65
6778;BME280;3426;52.244;10.534;2022-09-09T14:11:30;100064.94;;;25.65;41.60
6778;BME280;3426;52.244;10.534;2022-09-09T14:13:57;100068.34;;;26.30;39.25
6778;BME280;3426;52.244;10.534;2022-09-09T14:16:23;100063.84;;;25.81;39.34
6778;BME280;3426;52.244;10.534;2022-09-09T14:18:50;100073.81;;;25.31;40.25
6778;BME280;3426;52.244;10.534;2022-09-09T14:21:17;100069.59;;;25.28;41.46
6778;BME280;3426;52.244;10.534;2022-09-09T14:23:44;100072.63;;;25.61;41.27
6778;BME280;3426;52.244;10.534;2022-09-09T14:26:10;100074.69;;;25.38;41.04
6778;BME280;3426;52.244;10.534;2022-09-09T14:28:37;100075.91;;;24.99;41.71
6778;BME280;3426;52.244;10.534;2022-09-09T14:31:20;100058.34;;;25.74;40.94
6778;BME280;3426;52.244;10.534;2022-09-09T14:33:47;100058.72;;;25.71;40.86
6778;BME280;3426;52.244;10.534;2022-09-09T14:36:13;100069.63;;;25.99;40.90
6778;BME280;3426;52.244;10.534;2022-09-09T14:38:41;100068.25;;;25.82;42.06
6778;BME280;3426;52.244;10.534;2022-09-09T14:41:14;100065.84;;;25.94;41.63
6778;BME280;3426;52.244;10.534;2022-09-09T14:43:43;100075.16;;;25.42;42.17
6778;BME280;3426;52.244;10.534;2022-09-09T14:46:13;100077.78;;;25.56;42.89
6778;BME280;3426;52.244;10.534;2022-09-09T14:48:40;100078.38;;;25.52;42.87
6778;BME280;3426;52.244;10.534;2022-09-09T14:53:33;100074.25;;;25.56;42.85
6778;BME280;3426;52.244;10.534;2022-09-09T14:56:07;100067.22;;;25.04;43.46
6778;BME280;3426;52.244;10.534;2022-09-09T14:58:34;100068.69;;;25.21;42.72
6778;BME280;3426;52.244;10.534;2022-09-09T15:01:13;100070.19;;;24.43;43.68
6778;BME280;3426;52.244;10.534;2022-09-09T15:03:41;100068.69;;;24.85;42.71
6778;BME280;3426;52.244;10.534;2022-09-09T15:06:10;100066.25;;;25.48;42.19
6778;BME280;3426;52.244;10.534;2022-09-09T15:08:38;100057.66;;;25.66;42.61
6778;BME280;3426;52.244;10.534;2022-09-09T15:11:09;100062.78;;;24.81;44.03
6778;BME280;3426;52.244;10.534;2022-09-09T15:13:40;100063.66;;;24.38;44.17
6778;BME280;3426;52.244;10.534;2022-09-09T15:16:10;100069.03;;;24.08;44.36
6778;BME280;3426;52.244;10.534;2022-09-09T15:18:37;100066.69;;;25.30;42.90